sensor_id;sensor_type;location;lat;lon;timestamp;P1;durP1;ratioP1;P2;durP2;ratioP2
14306;SDS011;7237;49.500;11.400;2023-08-21T00:00:13;11.15;;;8.80;;
14306;SDS011;7237;49.500;11.400;2023-08-21T00:02:40;9.18;;;8.27;;
14306;SDS011;7237;49.500;11.400;2023-08-21T00:05:07;8.60;;;7.70;;
14306;SDS011;7237;49.500;11.400;2023-08-21T00:07:34;9.13;;;7.88;;
14306;SDS011;7237;49.500;11.400;2023-08-21T00:10:02;8.73;;;7.82;;
14306;SDS011;7237;49.500;11.400;2023-08-21T00:12:30;9.75;;;8.75;;
14306;SDS011;7237;49.500;11.400;2023-08-21T00:14:57;11.75;;;7.95;;
14306;SDS011;7237;49.500;11.400;2023-08-21T00:17:24;8.98;;;7.85;;
14306;SDS011;7237;49.500;11.400;2023-08-21T00:19:51;8.32;;;7.53;;
14306;SDS011;7237;49.500;11.400;2023-08-21T00:22:18;8.73;;;7.88;;
14306;SDS011;7237;49.500;11.400;2023-08-21T00:24:45;10.60;;;7.82;;
14306;SDS011;7237;49.500;11.400;2023-08-21T00:27:12;10.57;;;8.32;;
14306;SDS011;7237;49.500;11.400;2023-08-21T00:29:41;14.35;;;8.52;;
14306;SDS011;7237;49.500;11.400;2023-08-21T00:32:08;8.82;;;7.93;;
14306;SDS011;7237;49.500;11.400;2023-08-21T00:34:37;9.30;;;8.40;;
14306;SDS011;7237;49.500;11.400;2023-08-21T00:37:04;8.77;;;7.97;;
14306;SDS011;7237;49.500;11.400;2023-08-21T00:39:31;10.57;;;8.43;;
14306;SDS011;7237;49.500;11.400;2023-08-21T00:41:58;10.23;;;7.35;;
14306;SDS011;7237;49.500;11.400;2023-08-21T00:44:25;8.60;;;7.47;;
14306;SDS011;7237;49.500;11.400;2023-08-21T00:46:53;11.43;;;8.38;;
14306;SDS011;7237;49.500;11.400;2023-08-21T00:49:20;9.32;;;8.20;;
14306;SDS011;7237;49.500;11.400;2023-08-21T00:51:48;10.00;;;7.95;;
14306;SDS011;7237;49.500;11.400;2023-08-21T00:54:15;8.80;;;7.93;;
14306;SDS011;7237;49.500;11.400;2023-08-21T00:56:42;10.27;;;7.50;;
14306;SDS011;7237;49.500;11.400;2023-08-21T00:59:09;9.07;;;8.15;;
14306;SDS011;7237;49.500;11.400;2023-08-21T01:01:37;9.45;;;7.80;;
14306;SDS011;7237;49.500;11.400;2023-08-21T01:04:06;14.30;;;7.95;;
14306;SDS011;7237;49.500;11.400;2023-08-21T01:06:34;8.90;;;8.00;;
14306;SDS011;7237;49.500;11.400;2023-08-21T01:09:02;9.27;;;7.90;;
14306;SDS011;7237;49.500;11.400;2023-08-21T01:11:31;10.07;;;8.30;;
14306;SDS011;7237;49.500;11.400;2023-08-21T01:14:03;13.07;;;8.20;;
14306;SDS011;7237;49.500;11.400;2023-08-21T01:16:33;9.93;;;8.32;;
14306;SDS011;7237;49.500;11.400;2023-08-21T01:19:00;9.30;;;8.50;;
14306;SDS011;7237;49.500;11.400;2023-08-21T01:21:29;9.80;;;8.75;;
14306;SDS011;7237;49.500;11.400;2023-08-21T01:23:58;9.05;;;7.88;;
14306;SDS011;7237;49.500;11.400;2023-08-21T01:26:25;10.93;;;8.60;;
14306;SDS011;7237;49.500;11.400;2023-08-21T01:28:52;10.57;;;8.27;;
14306;SDS011;7237;49.500;11.400;2023-08-21T01:31:21;10.27;;;7.85;;
14306;SDS011;7237;49.500;11.400;2023-08-21T01:33:50;12.93;;;7.97;;
14306;SDS011;7237;49.500;11.400;2023-08-21T01:36:17;8.40;;;7.60;;
14306;SDS011;7237;49.500;11.400;2023-08-21T01:38:44;7.88;;;7.18;;
14306;SDS011;7237;49.500;11.400;2023-08-21T01:41:13;8.15;;;7.38;;
14306;SDS011;7237;49.500;11.400;2023-08-21T01:43:40;8.70;;;7.90;;
14306;SDS011;7237;49.500;11.400;2023-08-21T01:46:07;9.93;;;8.00;;
14306;SDS011;7237;49.500;11.400;2023-08-21T01:48:34;8.55;;;7.70;;
14306;SDS011;7237;49.500;11.400;2023-08-21T01:51:01;9.35;;;7.80;;
14306;SDS011;7237;49.500;11.400;2023-08-21T01:53:28;9.13;;;8.02;;
14306;SDS011;7237;49.500;11.400;2023-08-21T01:55:55;8.38;;;7.50;;
14306;SDS011;7237;49.500;11.400;2023-08-21T01:58:24;9.65;;;8.60;;
14306;SDS011;7237;49.500;11.400;2023-08-21T02:00:51;9.02;;;8.10;;
14306;SDS011;7237;49.500;11.400;2023-08-21T02:03:18;9.13;;;8.18;;
14306;SDS011;7237;49.500;11.400;2023-08-21T02:05:45;8.30;;;7.45;;
14306;SDS011;7237;49.500;11.400;2023-08-21T02:08:12;9.32;;;8.15;;
14306;SDS011;7237;49.500;11.400;2023-08-21T02:10:46;11.10;;;8.15;;
14306;SDS011;7237;49.500;11.400;2023-08-21T02:13:13;11.63;;;8.10;;
14306;SDS011;7237;49.500;11.400;2023-08-21T02:15:42;8.05;;;7.25;;
14306;SDS011;7237;49.500;11.400;2023-08-21T02:18:09;11.77;;;8.13;;
14306;SDS011;7237;49.500;11.400;2023-08-21T02:20:36;10.48;;;7.65;;
14306;SDS011;7237;49.500;11.400;2023-08-21T02:23:03;13.70;;;8.48;;
14306;SDS011;7237;49.500;11.400;2023-08-21T02:25:30;11.82;;;8.40;;
14306;SDS011;7237;49.500;11.400;2023-08-21T02:27:57;9.75;;;8.32;;
14306;SDS011;7237;49.500;11.400;2023-08-21T02:30:24;9.93;;;8.15;;
14306;SDS011;7237;49.500;11.400;2023-08-21T02:32:53;8.75;;;7.70;;
14306;SDS011;7237;49.500;11.400;2023-08-21T02:35:20;10.45;;;7.90;;
14306;SDS011;7237;49.500;11.400;2023-08-21T02:37:47;9.60;;;8.60;;
14306;SDS011;7237;49.500;11.400;2023-08-21T02:40:15;8.98;;;8.07;;
14306;SDS011;7237;49.500;11.400;2023-08-21T02:42:42;11.98;;;7.90;;
14306;SDS011;7237;49.500;11.400;2023-08-21T02:45:09;9.50;;;7.95;;
14306;SDS011;7237;49.500;11.400;2023-08-21T02:47:37;8.85;;;8.05;;
14306;SDS011;7237;49.500;11.400;2023-08-21T02:50:06;9.68;;;7.35;;
14306;SDS011;7237;49.500;11.400;2023-08-21T02:52:33;10.77;;;8.30;;
14306;SDS011;7237;49.500;11.400;2023-08-21T02:55:00;9.68;;;8.20;;
14306;SDS011;7237;49.500;11.400;2023-08-21T02:57:28;10.13;;;8.85;;
14306;SDS011;7237;49.500;11.400;2023-08-21T02:59:55;9.38;;;8.48;;
14306;SDS011;7237;49.500;11.400;2023-08-21T03:02:22;11.00;;;8.93;;
14306;SDS011;7237;49.500;11.400;2023-08-21T03:04:49;11.73;;;9.63;;
14306;SDS011;7237;49.500;11.400;2023-08-21T03:07:17;10.30;;;8.40;;
14306;SDS011;7237;49.500;11.400;2023-08-21T03:09:44;10.98;;;7.68;;
14306;SDS011;7237;49.500;11.400;2023-08-21T03:12:12;9.05;;;8.13;;
14306;SDS011;7237;49.500;11.400;2023-08-21T03:14:39;9.55;;;8.65;;
14306;SDS011;7237;49.500;11.400;2023-08-21T03:17:06;8.65;;;7.95;;
14306;SDS011;7237;49.500;11.400;2023-08-21T03:19:33;9.85;;;8.75;;
14306;SDS011;7237;49.500;11.400;2023-08-21T03:22:01;9.98;;;8.85;;
14306;SDS011;7237;49.500;11.400;2023-08-21T03:24:29;11.27;;;8.38;;
14306;SDS011;7237;49.500;11.400;2023-08-21T03:26:57;16.08;;;9.18;;
14306;SDS011;7237;49.500;11.400;2023-08-21T03:29:24;9.73;;;8.63;;
14306;SDS011;7237;49.500;11.400;2023-08-21T03:31:52;9.88;;;9.05;;
14306;SDS011;7237;49.500;11.400;2023-08-21T03:34:19;10.73;;;9.05;;
14306;SDS011;7237;49.500;11.400;2023-08-21T03:36:46;11.98;;;9.23;;
14306;SDS011;7237;49.500;11.400;2023-08-21T03:39:13;11.13;;;9.57;;
14306;SDS011;7237;49.500;11.400;2023-08-21T03:41:41;9.43;;;8.40;;
14306;SDS011;7237;49.500;11.400;2023-08-21T03:44:08;9.95;;;9.02;;
14306;SDS011;7237;49.500;11.400;2023-08-21T03:46:35;11.25;;;8.80;;
14306;SDS011;7237;49.500;11.400;2023-08-21T03:49:02;11.38;;;8.02;;
14306;SDS011;7237;49.500;11.400;2023-08-21T03:51:29;9.82;;;8.65;;
14306;SDS011;7237;49.500;11.400;2023-08-21T03:53:56;10.57;;;8.52;;
14306;SDS011;7237;49.500;11.400;2023-08-21T03:56:23;9.98;;;9.07;;
14306;SDS011;7237;49.500;11.400;2023-08-21T03:58:52;9.65;;;8.68;;
14306;SDS011;7237;49.500;11.400;2023-08-21T04:01:19;9.40;;;8.50;;
14306;SDS011;7237;49.500;11.400;2023-08-21T04:03:46;13.07;;;8.93;;
14306;SDS011;7237;49.500;11.400;2023-08-21T04:06:13;9.50;;;8.50;;
14306;SDS011;7237;49.500;11.400;2023-08-21T04:08:40;10.30;;;8.85;;
14306;SDS011;7237;49.500;11.400;2023-08-21T04:11:07;9.05;;;8.27;;
14306;SDS011;7237;49.500;11.400;2023-08-21T04:13:34;11.02;;;9.38;;
14306;SDS011;7237;49.500;11.400;2023-08-21T04:16:03;9.60;;;8.80;;
14306;SDS011;7237;49.500;11.400;2023-08-21T04:18:30;11.98;;;9.90;;
14306;SDS011;7237;49.500;11.400;2023-08-21T04:20:57;10.07;;;9.13;;
14306;SDS011;7237;49.500;11.400;2023-08-21T04:23:24;9.88;;;9.00;;
14306;SDS011;7237;49.500;11.400;2023-08-21T04:25:51;10.40;;;9.50;;
14306;SDS011;7237;49.500;11.400;2023-08-21T04:28:18;10.63;;;8.90;;
14306;SDS011;7237;49.500;11.400;2023-08-21T04:30:45;10.68;;;9.48;;
14306;SDS011;7237;49.500;11.400;2023-08-21T04:33:13;10.60;;;9.60;;
14306;SDS011;7237;49.500;11.400;2023-08-21T04:35:40;13.48;;;9.88;;
14306;SDS011;7237;49.500;11.400;2023-08-21T04:38:07;10.45;;;9.45;;
14306;SDS011;7237;49.500;11.400;2023-08-21T04:40:34;11.38;;;8.52;;
14306;SDS011;7237;49.500;11.400;2023-08-21T04:43:02;10.88;;;9.45;;
14306;SDS011;7237;49.500;11.400;2023-08-21T04:45:29;14.82;;;9.43;;
14306;SDS011;7237;49.500;11.400;2023-08-21T04:47:56;9.85;;;8.85;;
14306;SDS011;7237;49.500;11.400;2023-08-21T04:50:24;9.77;;;8.77;;
14306;SDS011;7237;49.500;11.400;2023-08-21T04:52:51;9.82;;;8.77;;
14306;SDS011;7237;49.500;11.400;2023-08-21T04:55:18;9.02;;;8.23;;
14306;SDS011;7237;49.500;11.400;2023-08-21T04:57:45;9.73;;;8.73;;
14306;SDS011;7237;49.500;11.400;2023-08-21T05:00:13;9.13;;;8.23;;
14306;SDS011;7237;49.500;11.400;2023-08-21T05:02:41;9.30;;;8.38;;
14306;SDS011;7237;49.500;11.400;2023-08-21T05:05:08;10.18;;;8.27;;
14306;SDS011;7237;49.500;11.400;2023-08-21T05:07:36;8.90;;;8.07;;
14306;SDS011;7237;49.500;11.400;2023-08-21T05:10:03;9.30;;;8.45;;
14306;SDS011;7237;49.500;11.400;2023-08-21T05:12:31;10.43;;;7.93;;
14306;SDS011;7237;49.500;11.400;2023-08-21T05:14:58;8.38;;;7.68;;
14306;SDS011;7237;49.500;11.400;2023-08-21T05:17:25;9.63;;;7.75;;
14306;SDS011;7237;49.500;11.400;2023-08-21T05:19:52;8.00;;;7.15;;
14306;SDS011;7237;49.500;11.400;2023-08-21T05:22:19;8.98;;;7.00;;
14306;SDS011;7237;49.500;11.400;2023-08-21T05:24:47;7.68;;;7.00;;
14306;SDS011;7237;49.500;11.400;2023-08-21T05:27:14;7.43;;;6.72;;
14306;SDS011;7237;49.500;11.400;2023-08-21T05:29:41;14.07;;;7.10;;
14306;SDS011;7237;49.500;11.400;2023-08-21T05:32:08;8.00;;;7.20;;
14306;SDS011;7237;49.500;11.400;2023-08-21T05:34:35;7.45;;;6.72;;
14306;SDS011;7237;49.500;11.400;2023-08-21T05:37:02;7.70;;;6.70;;
14306;SDS011;7237;49.500;11.400;2023-08-21T05:39:29;8.15;;;6.82;;
14306;SDS011;7237;49.500;11.400;2023-08-21T05:41:57;12.02;;;6.90;;
14306;SDS011;7237;49.500;11.400;2023-08-21T05:44:24;7.80;;;6.38;;
14306;SDS011;7237;49.500;11.400;2023-08-21T05:46:51;8.25;;;6.95;;
14306;SDS011;7237;49.500;11.400;2023-08-21T05:49:18;9.35;;;6.75;;
14306;SDS011;7237;49.500;11.400;2023-08-21T05:51:45;10.30;;;6.85;;
14306;SDS011;7237;49.500;11.400;2023-08-21T05:54:12;7.20;;;6.50;;
14306;SDS011;7237;49.500;11.400;2023-08-21T05:56:40;8.95;;;6.35;;
14306;SDS011;7237;49.500;11.400;2023-08-21T05:59:09;11.48;;;6.82;;
14306;SDS011;7237;49.500;11.400;2023-08-21T06:01:37;7.10;;;6.40;;
14306;SDS011;7237;49.500;11.400;2023-08-21T06:04:04;9.27;;;6.80;;
14306;SDS011;7237;49.500;11.400;2023-08-21T06:06:31;8.38;;;7.10;;
14306;SDS011;7237;49.500;11.400;2023-08-21T06:08:58;9.23;;;7.30;;
14306;SDS011;7237;49.500;11.400;2023-08-21T06:11:25;8.70;;;7.57;;
14306;SDS011;7237;49.500;11.400;2023-08-21T06:13:53;11.55;;;7.30;;
14306;SDS011;7237;49.500;11.400;2023-08-21T06:16:21;11.00;;;7.80;;
14306;SDS011;7237;49.500;11.400;2023-08-21T06:18:48;10.43;;;9.18;;
14306;SDS011;7237;49.500;11.400;2023-08-21T06:21:15;9.95;;;8.35;;
14306;SDS011;7237;49.500;11.400;2023-08-21T06:23:42;9.50;;;7.78;;
14306;SDS011;7237;49.500;11.400;2023-08-21T06:26:09;11.57;;;7.90;;
14306;SDS011;7237;49.500;11.400;2023-08-21T06:28:36;10.32;;;7.38;;
14306;SDS011;7237;49.500;11.400;2023-08-21T06:31:03;9.38;;;8.45;;
14306;SDS011;7237;49.500;11.400;2023-08-21T06:33:33;11.18;;;8.50;;
14306;SDS011;7237;49.500;11.400;2023-08-21T06:36:00;12.73;;;8.63;;
14306;SDS011;7237;49.500;11.400;2023-08-21T06:38:27;9.60;;;8.50;;
14306;SDS011;7237;49.500;11.400;2023-08-21T06:40:54;8.57;;;7.75;;
14306;SDS011;7237;49.500;11.400;2023-08-21T06:43:22;8.38;;;7.57;;
14306;SDS011;7237;49.500;11.400;2023-08-21T06:45:49;8.93;;;8.13;;
14306;SDS011;7237;49.500;11.400;2023-08-21T06:48:16;11.00;;;8.57;;
14306;SDS011;7237;49.500;11.400;2023-08-21T06:50:44;9.32;;;8.43;;
14306;SDS011;7237;49.500;11.400;2023-08-21T06:53:11;12.25;;;9.05;;
14306;SDS011;7237;49.500;11.400;2023-08-21T06:55:39;10.13;;;9.05;;
14306;SDS011;7237;49.500;11.400;2023-08-21T06:58:06;10.80;;;8.70;;
14306;SDS011;7237;49.500;11.400;2023-08-21T07:00:33;9.82;;;8.20;;
14306;SDS011;7237;49.500;11.400;2023-08-21T07:03:00;9.20;;;8.30;;
14306;SDS011;7237;49.500;11.400;2023-08-21T07:05:28;8.93;;;8.20;;
14306;SDS011;7237;49.500;11.400;2023-08-21T07:07:56;9.98;;;8.48;;
14306;SDS011;7237;49.500;11.400;2023-08-21T07:10:23;10.60;;;9.30;;
14306;SDS011;7237;49.500;11.400;2023-08-21T07:12:50;10.27;;;9.27;;
14306;SDS011;7237;49.500;11.400;2023-08-21T07:15:18;9.65;;;8.75;;
14306;SDS011;7237;49.500;11.400;2023-08-21T07:17:45;8.52;;;7.63;;
14306;SDS011;7237;49.500;11.400;2023-08-21T07:20:12;10.38;;;9.38;;
14306;SDS011;7237;49.500;11.400;2023-08-21T07:22:39;10.40;;;8.90;;
14306;SDS011;7237;49.500;11.400;2023-08-21T07:25:08;9.48;;;8.40;;
14306;SDS011;7237;49.500;11.400;2023-08-21T07:27:35;11.02;;;7.95;;
14306;SDS011;7237;49.500;11.400;2023-08-21T07:30:02;10.07;;;8.40;;
14306;SDS011;7237;49.500;11.400;2023-08-21T07:32:30;9.52;;;8.52;;
14306;SDS011;7237;49.500;11.400;2023-08-21T07:34:57;8.90;;;8.13;;
14306;SDS011;7237;49.500;11.400;2023-08-21T07:37:24;9.65;;;8.20;;
14306;SDS011;7237;49.500;11.400;2023-08-21T07:39:52;9.63;;;8.82;;
14306;SDS011;7237;49.500;11.400;2023-08-21T07:42:23;13.13;;;8.10;;
14306;SDS011;7237;49.500;11.400;2023-08-21T07:44:50;9.02;;;8.10;;
14306;SDS011;7237;49.500;11.400;2023-08-21T07:47:17;8.77;;;7.72;;
14306;SDS011;7237;49.500;11.400;2023-08-21T07:49:44;9.55;;;8.55;;
14306;SDS011;7237;49.500;11.400;2023-08-21T07:52:11;9.35;;;8.40;;
14306;SDS011;7237;49.500;11.400;2023-08-21T07:54:38;10.10;;;8.23;;
14306;SDS011;7237;49.500;11.400;2023-08-21T07:57:05;8.98;;;8.07;;
14306;SDS011;7237;49.500;11.400;2023-08-21T07:59:34;8.82;;;7.90;;
14306;SDS011;7237;49.500;11.400;2023-08-21T08:02:01;10.38;;;8.13;;
14306;SDS011;7237;49.500;11.400;2023-08-21T08:04:29;11.00;;;8.68;;
14306;SDS011;7237;49.500;11.400;2023-08-21T08:06:56;9.50;;;8.60;;
14306;SDS011;7237;49.500;11.400;2023-08-21T08:09:23;8.95;;;7.93;;
14306;SDS011;7237;49.500;11.400;2023-08-21T08:11:50;10.65;;;8.82;;
14306;SDS011;7237;49.500;11.400;2023-08-21T08:14:17;11.75;;;7.32;;
14306;SDS011;7237;49.500;11.400;2023-08-21T08:16:46;9.52;;;8.27;;
14306;SDS011;7237;49.500;11.400;2023-08-21T08:19:13;9.02;;;8.13;;
14306;SDS011;7237;49.500;11.400;2023-08-21T08:21:40;12.77;;;8.30;;
14306;SDS011;7237;49.500;11.400;2023-08-21T08:24:07;10.48;;;7.82;;
14306;SDS011;7237;49.500;11.400;2023-08-21T08:26:34;12.68;;;8.00;;
14306;SDS011;7237;49.500;11.400;2023-08-21T08:29:01;9.07;;;8.27;;
14306;SDS011;7237;49.500;11.400;2023-08-21T08:31:28;9.27;;;8.38;;
14306;SDS011;7237;49.500;11.400;2023-08-21T08:33:56;9.18;;;8.30;;
14306;SDS011;7237;49.500;11.400;2023-08-21T08:36:23;8.88;;;8.05;;
14306;SDS011;7237;49.500;11.400;2023-08-21T08:38:50;11.48;;;8.13;;
14306;SDS011;7237;49.500;11.400;2023-08-21T08:41:20;16.85;;;8.38;;
14306;SDS011;7237;49.500;11.400;2023-08-21T08:43:53;10.73;;;7.93;;
14306;SDS011;7237;49.500;11.400;2023-08-21T08:46:22;8.77;;;7.88;;
14306;SDS011;7237;49.500;11.400;2023-08-21T08:48:50;15.88;;;8.20;;
14306;SDS011;7237;49.500;11.400;2023-08-21T08:51:19;14.43;;;8.50;;
14306;SDS011;7237;49.500;11.400;2023-08-21T08:53:46;12.65;;;8.68;;
14306;SDS011;7237;49.500;11.400;2023-08-21T08:56:14;9.45;;;8.50;;
14306;SDS011;7237;49.500;11.400;2023-08-21T08:58:41;10.73;;;8.70;;
14306;SDS011;7237;49.500;11.400;2023-08-21T09:01:08;9.70;;;8.75;;
14306;SDS011;7237;49.500;11.400;2023-08-21T09:03:36;10.80;;;8.48;;
14306;SDS011;7237;49.500;11.400;2023-08-21T09:06:03;10.75;;;8.85;;
14306;SDS011;7237;49.500;11.400;2023-08-21T09:08:31;13.93;;;8.70;;
14306;SDS011;7237;49.500;11.400;2023-08-21T09:11:00;12.52;;;8.07;;
14306;SDS011;7237;49.500;11.400;2023-08-21T09:13:28;9.40;;;8.50;;
14306;SDS011;7237;49.500;11.400;2023-08-21T09:15:55;9.88;;;8.38;;
14306;SDS011;7237;49.500;11.400;2023-08-21T09:18:22;8.75;;;7.85;;
14306;SDS011;7237;49.500;11.400;2023-08-21T09:20:49;10.07;;;9.07;;
14306;SDS011;7237;49.500;11.400;2023-08-21T09:23:16;18.20;;;8.93;;
14306;SDS011;7237;49.500;11.400;2023-08-21T09:25:45;9.95;;;8.60;;
14306;SDS011;7237;49.500;11.400;2023-08-21T09:28:13;10.55;;;8.63;;
14306;SDS011;7237;49.500;11.400;2023-08-21T09:30:44;10.07;;;8.82;;
14306;SDS011;7237;49.500;11.400;2023-08-21T09:33:11;9.57;;;8.68;;
14306;SDS011;7237;49.500;11.400;2023-08-21T09:35:38;12.18;;;9.30;;
14306;SDS011;7237;49.500;11.400;2023-08-21T09:38:07;11.15;;;8.52;;
14306;SDS011;7237;49.500;11.400;2023-08-21T09:40:34;11.93;;;8.10;;
14306;SDS011;7237;49.500;11.400;2023-08-21T09:43:03;7.95;;;7.25;;
14306;SDS011;7237;49.500;11.400;2023-08-21T09:45:31;7.55;;;6.85;;
14306;SDS011;7237;49.500;11.400;2023-08-21T09:48:00;7.78;;;6.97;;
14306;SDS011;7237;49.500;11.400;2023-08-21T09:50:28;7.57;;;6.88;;
14306;SDS011;7237;49.500;11.400;2023-08-21T09:52:56;8.65;;;7.07;;
14306;SDS011;7237;49.500;11.400;2023-08-21T09:55:23;7.65;;;6.95;;
14306;SDS011;7237;49.500;11.400;2023-08-21T09:57:52;7.93;;;6.40;;
14306;SDS011;7237;49.500;11.400;2023-08-21T10:00:25;9.85;;;6.85;;
14306;SDS011;7237;49.500;11.400;2023-08-21T10:02:52;11.43;;;7.38;;
14306;SDS011;7237;49.500;11.400;2023-08-21T10:05:20;8.20;;;7.22;;
14306;SDS011;7237;49.500;11.400;2023-08-21T10:07:48;7.68;;;6.93;;
14306;SDS011;7237;49.500;11.400;2023-08-21T10:10:15;9.35;;;6.43;;
14306;SDS011;7237;49.500;11.400;2023-08-21T10:12:42;10.57;;;6.63;;
14306;SDS011;7237;49.500;11.400;2023-08-21T10:15:10;8.18;;;6.68;;
14306;SDS011;7237;49.500;11.400;2023-08-21T10:17:38;7.32;;;6.72;;
14306;SDS011;7237;49.500;11.400;2023-08-21T10:20:06;7.47;;;6.82;;
14306;SDS011;7237;49.500;11.400;2023-08-21T10:22:38;6.88;;;6.28;;
14306;SDS011;7237;49.500;11.400;2023-08-21T10:25:13;7.47;;;6.53;;
14306;SDS011;7237;49.500;11.400;2023-08-21T10:27:40;9.93;;;6.68;;
14306;SDS011;7237;49.500;11.400;2023-08-21T10:30:12;7.53;;;6.22;;
14306;SDS011;7237;49.500;11.400;2023-08-21T10:32:45;8.30;;;5.82;;
14306;SDS011;7237;49.500;11.400;2023-08-21T10:35:13;7.93;;;6.78;;
14306;SDS011;7237;49.500;11.400;2023-08-21T10:40:22;8.27;;;6.15;;
14306;SDS011;7237;49.500;11.400;2023-08-21T10:42:50;8.75;;;5.93;;
14306;SDS011;7237;49.500;11.400;2023-08-21T10:45:17;9.00;;;6.68;;
14306;SDS011;7237;49.500;11.400;2023-08-21T10:47:45;7.05;;;5.80;;
14306;SDS011;7237;49.500;11.400;2023-08-21T10:50:15;7.45;;;5.60;;
14306;SDS011;7237;49.500;11.400;2023-08-21T10:52:42;7.40;;;6.32;;
14306;SDS011;7237;49.500;11.400;2023-08-21T10:55:10;7.28;;;6.18;;
14306;SDS011;7237;49.500;11.400;2023-08-21T10:57:38;9.88;;;6.03;;
14306;SDS011;7237;49.500;11.400;2023-08-21T11:00:06;6.95;;;6.20;;
14306;SDS011;7237;49.500;11.400;2023-08-21T11:02:34;7.55;;;6.68;;
14306;SDS011;7237;49.500;11.400;2023-08-21T11:05:03;9.93;;;6.35;;
14306;SDS011;7237;49.500;11.400;2023-08-21T11:07:36;7.32;;;6.15;;
14306;SDS011;7237;49.500;11.400;2023-08-21T11:10:04;6.82;;;6.13;;
14306;SDS011;7237;49.500;11.400;2023-08-21T11:12:32;7.05;;;6.35;;
14306;SDS011;7237;49.500;11.400;2023-08-21T11:14:59;6.95;;;6.05;;
14306;SDS011;7237;49.500;11.400;2023-08-21T11:17:26;7.65;;;6.20;;
14306;SDS011;7237;49.500;11.400;2023-08-21T11:19:53;7.07;;;5.80;;
14306;SDS011;7237;49.500;11.400;2023-08-21T11:22:25;7.05;;;6.00;;
14306;SDS011;7237;49.500;11.400;2023-08-21T11:24:55;7.93;;;6.53;;
14306;SDS011;7237;49.500;11.400;2023-08-21T11:27:22;6.88;;;6.18;;
14306;SDS011;7237;49.500;11.400;2023-08-21T11:29:49;9.45;;;6.50;;
14306;SDS011;7237;49.500;11.400;2023-08-21T11:32:17;12.32;;;5.57;;
14306;SDS011;7237;49.500;11.400;2023-08-21T11:34:47;9.98;;;5.60;;
14306;SDS011;7237;49.500;11.400;2023-08-21T11:37:15;10.00;;;5.72;;
14306;SDS011;7237;49.500;11.400;2023-08-21T11:39:45;6.47;;;5.57;;
14306;SDS011;7237;49.500;11.400;2023-08-21T11:42:12;6.43;;;5.35;;
14306;SDS011;7237;49.500;11.400;2023-08-21T11:44:43;8.90;;;5.85;;
14306;SDS011;7237;49.500;11.400;2023-08-21T11:47:11;6.15;;;5.55;;
14306;SDS011;7237;49.500;11.400;2023-08-21T11:49:38;8.25;;;4.97;;
14306;SDS011;7237;49.500;11.400;2023-08-21T11:52:07;7.78;;;5.18;;
14306;SDS011;7237;49.500;11.400;2023-08-21T11:54:34;7.15;;;4.90;;
14306;SDS011;7237;49.500;11.400;2023-08-21T11:57:07;6.88;;;4.80;;
14306;SDS011;7237;49.500;11.400;2023-08-21T11:59:34;8.20;;;4.97;;
14306;SDS011;7237;49.500;11.400;2023-08-21T12:02:08;7.82;;;5.03;;
14306;SDS011;7237;49.500;11.400;2023-08-21T12:04:36;8.43;;;5.68;;
14306;SDS011;7237;49.500;11.400;2023-08-21T12:07:03;6.32;;;5.07;;
14306;SDS011;7237;49.500;11.400;2023-08-21T12:09:30;6.63;;;5.15;;
14306;SDS011;7237;49.500;11.400;2023-08-21T12:11:57;7.57;;;5.20;;
14306;SDS011;7237;49.500;11.400;2023-08-21T12:14:27;8.60;;;5.53;;
14306;SDS011;7237;49.500;11.400;2023-08-21T12:16:54;7.78;;;5.20;;
14306;SDS011;7237;49.500;11.400;2023-08-21T12:19:21;7.95;;;5.18;;
14306;SDS011;7237;49.500;11.400;2023-08-21T12:21:49;6.57;;;5.20;;
14306;SDS011;7237;49.500;11.400;2023-08-21T12:24:16;8.38;;;5.32;;
14306;SDS011;7237;49.500;11.400;2023-08-21T12:26:43;7.30;;;5.28;;
14306;SDS011;7237;49.500;11.400;2023-08-21T12:29:10;6.10;;;5.50;;
14306;SDS011;7237;49.500;11.400;2023-08-21T12:31:39;6.43;;;5.45;;
14306;SDS011;7237;49.500;11.400;2023-08-21T12:34:06;7.43;;;5.20;;
14306;SDS011;7237;49.500;11.400;2023-08-21T12:36:34;6.60;;;5.20;;
14306;SDS011;7237;49.500;11.400;2023-08-21T12:39:01;7.68;;;5.07;;
14306;SDS011;7237;49.500;11.400;2023-08-21T12:41:29;8.63;;;5.43;;
14306;SDS011;7237;49.500;11.400;2023-08-21T12:43:56;6.93;;;4.97;;
14306;SDS011;7237;49.500;11.400;2023-08-21T12:46:23;6.07;;;5.32;;
14306;SDS011;7237;49.500;11.400;2023-08-21T12:48:52;7.35;;;5.45;;
14306;SDS011;7237;49.500;11.400;2023-08-21T12:51:19;8.02;;;5.30;;
14306;SDS011;7237;49.500;11.400;2023-08-21T12:53:46;6.40;;;5.32;;
14306;SDS011;7237;49.500;11.400;2023-08-21T12:56:14;6.03;;;5.43;;
14306;SDS011;7237;49.500;11.400;2023-08-21T12:58:41;6.18;;;5.55;;
14306;SDS011;7237;49.500;11.400;2023-08-21T13:01:08;12.18;;;5.32;;
14306;SDS011;7237;49.500;11.400;2023-08-21T13:03:35;6.57;;;5.20;;
14306;SDS011;7237;49.500;11.400;2023-08-21T13:06:03;7.05;;;4.97;;
14306;SDS011;7237;49.500;11.400;2023-08-21T13:08:30;6.38;;;5.18;;
14306;SDS011;7237;49.500;11.400;2023-08-21T13:10:57;9.85;;;5.57;;
14306;SDS011;7237;49.500;11.400;2023-08-21T13:13:25;7.05;;;5.13;;
14306;SDS011;7237;49.500;11.400;2023-08-21T13:15:52;6.28;;;5.28;;
14306;SDS011;7237;49.500;11.400;2023-08-21T13:18:20;12.50;;;4.75;;
14306;SDS011;7237;49.500;11.400;2023-08-21T13:20:47;6.68;;;4.90;;
14306;SDS011;7237;49.500;11.400;2023-08-21T13:23:15;7.75;;;4.93;;
14306;SDS011;7237;49.500;11.400;2023-08-21T13:25:42;5.35;;;3.85;;
14306;SDS011;7237;49.500;11.400;2023-08-21T13:28:09;12.32;;;4.93;;
14306;SDS011;7237;49.500;11.400;2023-08-21T13:30:36;10.48;;;4.47;;
14306;SDS011;7237;49.500;11.400;2023-08-21T13:33:04;9.82;;;5.00;;
14306;SDS011;7237;49.500;11.400;2023-08-21T13:35:31;5.28;;;4.30;;
14306;SDS011;7237;49.500;11.400;2023-08-21T13:37:58;8.07;;;4.22;;
14306;SDS011;7237;49.500;11.400;2023-08-21T13:40:27;6.18;;;4.20;;
14306;SDS011;7237;49.500;11.400;2023-08-21T13:42:54;11.07;;;4.82;;
14306;SDS011;7237;49.500;11.400;2023-08-21T13:45:23;5.30;;;3.72;;
14306;SDS011;7237;49.500;11.400;2023-08-21T13:47:50;4.38;;;3.97;;
14306;SDS011;7237;49.500;11.400;2023-08-21T13:50:18;4.63;;;4.22;;
14306;SDS011;7237;49.500;11.400;2023-08-21T13:52:46;6.35;;;4.30;;
14306;SDS011;7237;49.500;11.400;2023-08-21T13:55:14;7.03;;;4.22;;
14306;SDS011;7237;49.500;11.400;2023-08-21T13:57:42;6.35;;;4.47;;
14306;SDS011;7237;49.500;11.400;2023-08-21T14:00:10;6.85;;;4.78;;
14306;SDS011;7237;49.500;11.400;2023-08-21T14:02:38;6.50;;;3.92;;
14306;SDS011;7237;49.500;11.400;2023-08-21T14:05:05;5.72;;;4.03;;
14306;SDS011;7237;49.500;11.400;2023-08-21T14:07:32;6.72;;;4.30;;
14306;SDS011;7237;49.500;11.400;2023-08-21T14:10:00;4.53;;;4.10;;
14306;SDS011;7237;49.500;11.400;2023-08-21T14:12:28;7.18;;;4.53;;
14306;SDS011;7237;49.500;11.400;2023-08-21T14:14:57;7.55;;;4.57;;
14306;SDS011;7237;49.500;11.400;2023-08-21T14:17:24;7.15;;;3.78;;
14306;SDS011;7237;49.500;11.400;2023-08-21T14:19:51;4.65;;;4.18;;
14306;SDS011;7237;49.500;11.400;2023-08-21T14:22:19;10.45;;;4.25;;
14306;SDS011;7237;49.500;11.400;2023-08-21T14:24:46;7.60;;;3.88;;
14306;SDS011;7237;49.500;11.400;2023-08-21T14:27:13;5.28;;;4.15;;
14306;SDS011;7237;49.500;11.400;2023-08-21T14:29:41;8.25;;;4.22;;
14306;SDS011;7237;49.500;11.400;2023-08-21T14:32:10;6.40;;;4.03;;
14306;SDS011;7237;49.500;11.400;2023-08-21T14:34:37;5.50;;;4.32;;
14306;SDS011;7237;49.500;11.400;2023-08-21T14:37:04;6.47;;;3.75;;
14306;SDS011;7237;49.500;11.400;2023-08-21T14:39:31;5.28;;;3.92;;
14306;SDS011;7237;49.500;11.400;2023-08-21T14:41:59;5.35;;;3.92;;
14306;SDS011;7237;49.500;11.400;2023-08-21T14:44:26;6.40;;;3.97;;
14306;SDS011;7237;49.500;11.400;2023-08-21T14:46:54;4.93;;;4.32;;